createdAt,value
2017-11-06T00:01:14.350Z,5.80
2017-11-06T00:03:43.567Z,5.80
2017-11-06T00:06:12.831Z,5.60
2017-11-06T00:08:42.055Z,5.50
2017-11-06T00:11:11.305Z,5.40
2017-11-06T00:13:40.530Z,5.40
2017-11-06T00:16:09.778Z,5.40
2017-11-06T00:18:39.047Z,5.30
2017-11-06T00:21:08.276Z,5.40
2017-11-06T00:23:37.510Z,5.40
2017-11-06T00:26:06.918Z,5.40
2017-11-06T00:28:36.181Z,5.40
2017-11-06T00:31:05.431Z,5.30
2017-11-06T00:33:34.678Z,5.40
2017-11-06T00:36:04.740Z,5.30
2017-11-06T00:38:34.761Z,5.30
2017-11-06T00:41:04.033Z,5.20
2017-11-06T00:43:33.274Z,5.10
2017-11-06T00:46:02.527Z,5.10
2017-11-06T00:48:31.770Z,5.00
2017-11-06T00:51:01.015Z,4.90
2017-11-06T00:53:31.048Z,4.90
2017-11-06T00:56:00.256Z,4.90
2017-11-06T00:58:29.528Z,4.80
2017-11-06T01:00:59.557Z,4.70
2017-11-06T01:03:28.820Z,4.70
2017-11-06T01:05:58.067Z,4.70
2017-11-06T01:08:27.309Z,4.70
2017-11-06T01:10:56.555Z,4.70
2017-11-06T01:13:25.795Z,4.60
2017-11-06T01:15:55.033Z,4.60
2017-11-06T01:18:24.287Z,4.50
2017-11-06T01:20:53.661Z,4.50
2017-11-06T01:23:23.679Z,4.50
2017-11-06T01:25:52.901Z,4.50
2017-11-06T01:28:22.265Z,4.50
2017-11-06T01:30:53.125Z,4.50
2017-11-06T01:33:23.222Z,4.60
2017-11-06T01:35:52.449Z,4.50
2017-11-06T01:38:21.711Z,4.60
2017-11-06T01:40:51.115Z,4.60
2017-11-06T01:43:20.361Z,4.60
2017-11-06T01:45:49.726Z,4.60
2017-11-06T01:48:19.230Z,4.70
2017-11-06T01:50:48.465Z,4.70
2017-11-06T01:53:18.350Z,4.80
2017-11-06T01:55:47.610Z,4.90
2017-11-06T01:58:17.018Z,4.90
2017-11-06T02:00:46.278Z,5.00
2017-11-06T02:03:15.546Z,5.10
2017-11-06T02:05:44.827Z,5.10
2017-11-06T02:08:14.208Z,5.10
2017-11-06T02:10:43.474Z,5.20
2017-11-06T02:13:12.704Z,5.30
2017-11-06T02:15:41.961Z,5.40
2017-11-06T02:18:11.205Z,5.50
2017-11-06T02:20:40.447Z,5.50
2017-11-06T02:23:09.695Z,5.60
2017-11-06T02:25:38.963Z,5.50
2017-11-06T02:28:08.967Z,5.60
2017-11-06T02:30:38.389Z,5.60
2017-11-06T02:33:08.375Z,5.80
2017-11-06T02:35:37.622Z,5.70
2017-11-06T02:38:06.901Z,5.90
2017-11-06T02:40:36.351Z,5.90
2017-11-06T02:43:05.590Z,5.90
2017-11-06T02:45:35.506Z,5.90
2017-11-06T02:48:04.924Z,5.90
2017-11-06T02:50:34.188Z,6.00
2017-11-06T02:53:03.433Z,6.00
2017-11-06T02:55:32.828Z,6.00
2017-11-06T02:58:02.079Z,6.00
2017-11-06T03:00:31.355Z,5.90
2017-11-06T03:03:00.730Z,5.90
2017-11-06T03:05:30.086Z,5.90
2017-11-06T03:07:59.522Z,5.80
2017-11-06T03:10:28.763Z,5.80
2017-11-06T03:12:57.997Z,5.80
2017-11-06T03:15:27.243Z,5.80
2017-11-06T03:17:57.336Z,5.70
2017-11-06T03:20:26.590Z,5.70
2017-11-06T03:22:56.239Z,5.70
2017-11-06T03:25:25.604Z,5.70
2017-11-06T03:27:54.802Z,5.80
2017-11-06T03:30:24.065Z,5.90
2017-11-06T03:32:53.389Z,5.90
2017-11-06T03:35:23.494Z,6.10
2017-11-06T03:37:52.747Z,6.10
2017-11-06T03:40:22.124Z,6.20
2017-11-06T03:42:51.422Z,6.30
2017-11-06T03:45:20.674Z,6.40
2017-11-06T03:47:49.930Z,6.40
2017-11-06T03:50:19.278Z,6.40
2017-11-06T03:52:48.547Z,6.40
2017-11-06T03:55:17.797Z,6.40
2017-11-06T03:57:47.090Z,6.40
2017-11-06T04:00:16.382Z,6.40
2017-11-06T04:02:45.622Z,6.40
2017-11-06T04:05:15.661Z,6.50
2017-11-06T04:07:44.889Z,6.50
2017-11-06T04:10:14.125Z,6.50
2017-11-06T04:12:43.396Z,6.60
2017-11-06T04:15:12.624Z,6.60
2017-11-06T04:17:41.883Z,6.50
2017-11-06T04:20:11.281Z,6.60
2017-11-06T04:22:40.617Z,6.60
2017-11-06T04:25:10.133Z,6.60
2017-11-06T04:27:39.402Z,6.60
2017-11-06T04:30:08.731Z,6.50
2017-11-06T04:32:38.200Z,6.50
2017-11-06T04:35:07.455Z,6.50
2017-11-06T04:37:36.693Z,6.50
2017-11-06T04:40:05.980Z,6.40
2017-11-06T04:42:35.207Z,6.40
2017-11-06T04:45:04.458Z,6.50
2017-11-06T04:47:33.721Z,6.30
2017-11-06T04:50:02.984Z,6.10
2017-11-06T04:52:32.991Z,5.80
2017-11-06T04:55:02.367Z,5.80
2017-11-06T04:57:31.833Z,5.70
2017-11-06T05:00:01.075Z,5.50
2017-11-06T05:02:30.502Z,5.30
2017-11-06T05:04:59.736Z,5.20
2017-11-06T05:07:28.957Z,5.20
2017-11-06T05:09:58.210Z,5.10
2017-11-06T05:12:27.441Z,5.10
2017-11-06T05:14:56.719Z,5.20
2017-11-06T05:17:25.958Z,5.20
2017-11-06T05:19:55.206Z,5.30
2017-11-06T05:22:25.258Z,5.30
2017-11-06T05:24:54.673Z,5.40
2017-11-06T05:27:23.930Z,5.40
2017-11-06T05:29:54.035Z,5.60
2017-11-06T05:32:23.454Z,5.60
2017-11-06T05:34:52.693Z,5.70
2017-11-06T05:37:21.959Z,5.80
2017-11-06T05:39:51.211Z,5.80
2017-11-06T05:42:20.642Z,5.80
2017-11-06T05:44:49.912Z,5.80
2017-11-06T05:47:19.147Z,5.80
2017-11-06T05:49:49.277Z,5.60
2017-11-06T05:52:18.554Z,5.60
2017-11-06T05:54:47.817Z,5.50
2017-11-06T05:57:17.039Z,5.50
2017-11-06T05:59:46.330Z,5.40
2017-11-06T06:02:15.755Z,5.30
2017-11-06T06:04:45.099Z,5.20
2017-11-06T06:07:14.345Z,5.10
2017-11-06T06:09:43.579Z,5.00
2017-11-06T06:12:13.040Z,4.90
2017-11-06T06:14:42.287Z,4.90
2017-11-06T06:17:11.604Z,4.80
2017-11-06T06:19:41.039Z,4.70
2017-11-06T06:22:10.334Z,4.50
2017-11-06T06:24:39.637Z,4.40
2017-11-06T06:27:08.879Z,4.40
2017-11-06T06:29:38.128Z,4.30
2017-11-06T06:32:07.503Z,4.20
2017-11-06T06:34:36.733Z,4.10
2017-11-06T06:37:06.009Z,4.00
2017-11-06T06:39:35.426Z,4.00
2017-11-06T06:42:05.879Z,3.90
2017-11-06T06:44:35.126Z,3.90
2017-11-06T06:47:04.486Z,4.00
2017-11-06T06:49:33.740Z,4.00
2017-11-06T06:52:02.967Z,4.00
2017-11-06T06:54:32.210Z,4.00
2017-11-06T06:57:01.487Z,4.00
2017-11-06T06:59:30.790Z,4.00
2017-11-06T07:02:00.180Z,4.10
2017-11-06T07:04:29.560Z,4.20
2017-11-06T07:06:58.818Z,4.20
2017-11-06T07:09:28.094Z,4.30
2017-11-06T07:11:57.351Z,4.30
2017-11-06T07:14:26.609Z,4.40
2017-11-06T07:16:55.883Z,4.40
2017-11-06T07:19:25.257Z,4.60
2017-11-06T07:21:54.658Z,4.60
2017-11-06T07:24:23.930Z,4.80
2017-11-06T07:26:53.321Z,5.10
2017-11-06T07:29:22.552Z,5.50
2017-11-06T07:31:51.868Z,5.90
2017-11-06T07:34:21.176Z,6.10
2017-11-06T07:36:51.249Z,6.50
2017-11-06T07:39:20.484Z,6.50
2017-11-06T07:41:49.891Z,7.90
2017-11-06T07:44:19.163Z,10.00
2017-11-06T07:46:48.405Z,12.30
2017-11-06T07:49:17.675Z,14.20
2017-11-06T07:51:46.944Z,15.70
2017-11-06T07:54:16.210Z,17.50
2017-11-06T07:56:46.255Z,20.20
2017-11-06T07:59:15.500Z,20.20
2017-11-06T08:01:44.918Z,20.30
2017-11-06T08:04:14.223Z,19.70
2017-11-06T08:06:44.243Z,21.60
2017-11-06T08:09:13.498Z,21.60
2017-11-06T08:11:42.763Z,22.00
2017-11-06T08:14:12.046Z,21.80
2017-11-06T08:16:42.836Z,23.00
2017-11-06T08:19:12.073Z,22.90
2017-11-06T08:21:41.329Z,23.90
2017-11-06T08:24:10.603Z,24.50
2017-11-06T08:26:39.874Z,24.30
2017-11-06T08:29:09.116Z,24.30
2017-11-06T08:31:38.363Z,24.20
2017-11-06T08:34:07.613Z,25.30
2017-11-06T08:36:36.854Z,25.50
2017-11-06T08:39:06.155Z,25.60
2017-11-06T08:41:35.419Z,26.40
2017-11-06T08:44:04.716Z,26.60
2017-11-06T08:46:34.194Z,25.70
2017-11-06T08:49:04.245Z,25.20
2017-11-06T08:51:33.538Z,25.10
2017-11-06T08:54:03.018Z,25.20
2017-11-06T08:56:32.289Z,25.30
2017-11-06T08:59:01.542Z,24.60
2017-11-06T09:01:31.565Z,24.60
2017-11-06T09:04:00.850Z,24.60
2017-11-06T09:06:30.867Z,25.40
2017-11-06T09:09:00.911Z,25.50
2017-11-06T09:11:30.178Z,25.40
2017-11-06T09:13:59.456Z,25.50
2017-11-06T09:16:30.226Z,25.30
2017-11-06T09:19:00.269Z,25.30
2017-11-06T09:21:29.533Z,25.30
2017-11-06T09:23:59.581Z,24.30
2017-11-06T09:26:28.914Z,24.30
2017-11-06T09:28:58.250Z,23.30
2017-11-06T09:31:27.519Z,23.00
2017-11-06T09:33:56.787Z,22.60
2017-11-06T09:36:26.194Z,23.10
2017-11-06T09:38:55.443Z,23.80
2017-11-06T09:41:25.091Z,24.60
2017-11-06T09:43:54.483Z,25.60
2017-11-06T09:46:24.522Z,26.00
2017-11-06T09:48:53.815Z,26.00
2017-11-06T09:51:23.043Z,26.20
2017-11-06T09:53:52.286Z,26.20
2017-11-06T09:56:21.599Z,26.30
2017-11-06T09:58:51.662Z,27.10
2017-11-06T10:01:20.936Z,27.10
2017-11-06T10:03:50.931Z,26.70
2017-11-06T10:06:20.234Z,26.70
2017-11-06T10:08:49.739Z,26.40
2017-11-06T10:11:18.979Z,26.50
2017-11-06T10:13:48.258Z,26.40
2017-11-06T10:16:17.650Z,25.70
2017-11-06T10:18:47.796Z,21.10
2017-11-06T10:21:17.039Z,21.00
2017-11-06T10:23:46.330Z,18.90
2017-11-06T10:26:15.626Z,16.90
2017-11-06T10:28:45.182Z,15.40
2017-11-06T10:31:15.295Z,14.60
2017-11-06T10:33:44.599Z,14.60
2017-11-06T10:36:14.701Z,16.10
2017-11-06T10:38:43.986Z,16.10
2017-11-06T10:41:13.338Z,15.80
2017-11-06T10:43:42.617Z,14.80
2017-11-06T10:46:11.880Z,13.80
2017-11-06T10:48:41.160Z,13.10
2017-11-06T10:51:10.525Z,12.40
2017-11-06T10:53:40.586Z,11.90
2017-11-06T10:56:09.835Z,11.90
2017-11-06T10:58:39.100Z,12.80
2017-11-06T11:01:08.446Z,12.90
2017-11-06T11:03:37.707Z,12.80
2017-11-06T11:06:06.969Z,12.90
2017-11-06T11:08:37.006Z,12.70
2017-11-06T11:11:06.290Z,12.70
2017-11-06T11:13:35.551Z,12.60
2017-11-06T11:16:04.805Z,12.30
2017-11-06T11:18:34.078Z,12.00
2017-11-06T11:21:04.135Z,12.00
2017-11-06T11:23:33.438Z,12.00
2017-11-06T11:26:02.714Z,11.70
2017-11-06T11:28:31.965Z,11.10
2017-11-06T11:31:01.243Z,10.80
2017-11-06T11:33:30.518Z,10.60
2017-11-06T11:35:59.782Z,10.80
2017-11-06T11:38:29.078Z,12.10
2017-11-06T11:40:58.317Z,13.80
2017-11-06T11:43:27.598Z,14.80
2017-11-06T11:45:56.884Z,16.40
2017-11-06T11:48:27.841Z,16.70
2017-11-06T11:50:57.154Z,16.70
2017-11-06T11:53:26.548Z,16.40
2017-11-06T11:55:56.641Z,15.80
2017-11-06T11:58:25.906Z,15.80
2017-11-06T12:00:55.174Z,15.30
2017-11-06T12:03:25.157Z,15.00
2017-11-06T12:05:55.178Z,14.70
2017-11-06T12:08:24.450Z,14.00
2017-11-06T12:10:53.726Z,13.40
2017-11-06T12:13:23.864Z,12.20
2017-11-06T12:15:53.129Z,12.10
2017-11-06T12:18:23.270Z,11.60
2017-11-06T12:20:52.758Z,11.60
2017-11-06T12:23:22.820Z,11.30
2017-11-06T12:25:52.098Z,11.30
2017-11-06T12:28:21.466Z,11.30
2017-11-06T12:30:51.515Z,11.30
2017-11-06T12:33:20.770Z,11.30
2017-11-06T12:35:50.082Z,11.10
2017-11-06T12:38:20.863Z,11.00
2017-11-06T12:40:50.177Z,11.00
2017-11-06T12:43:19.455Z,11.00
2017-11-06T12:45:48.706Z,11.30
2017-11-06T12:48:18.182Z,11.20
2017-11-06T12:50:47.442Z,11.10
2017-11-06T12:53:16.834Z,10.90
2017-11-06T12:55:46.110Z,10.80
2017-11-06T12:58:15.401Z,10.90
2017-11-06T13:00:44.741Z,10.90
2017-11-06T13:03:14.907Z,10.90
2017-11-06T13:05:44.202Z,10.80
2017-11-06T13:08:13.476Z,11.00
2017-11-06T13:10:42.907Z,11.00
2017-11-06T13:13:12.261Z,10.80
2017-11-06T13:15:41.534Z,10.70
2017-11-06T13:18:10.821Z,10.70
2017-11-06T13:20:40.089Z,10.60
2017-11-06T13:23:10.096Z,10.40
2017-11-06T13:25:39.362Z,10.40
2017-11-06T13:28:08.646Z,10.50
2017-11-06T13:30:37.903Z,10.40
2017-11-06T13:33:07.938Z,10.00
2017-11-06T13:35:37.340Z,10.00
2017-11-06T13:38:06.718Z,10.00
2017-11-06T13:40:36.147Z,9.90
2017-11-06T13:43:06.257Z,10.10
2017-11-06T13:45:36.364Z,10.10
2017-11-06T13:48:05.634Z,10.10
2017-11-06T13:50:34.877Z,10.30
2017-11-06T13:53:04.965Z,10.40
2017-11-06T13:55:34.222Z,10.40
2017-11-06T13:58:03.479Z,10.60
2017-11-06T14:00:32.743Z,10.80
2017-11-06T14:03:01.988Z,11.00
2017-11-06T14:05:31.558Z,11.00
2017-11-06T14:08:00.910Z,11.00
2017-11-06T14:10:30.931Z,10.60
2017-11-06T14:13:00.318Z,10.50
2017-11-06T14:15:29.582Z,10.40
2017-11-06T14:17:58.831Z,10.20
2017-11-06T14:20:29.273Z,10.20
2017-11-06T14:22:59.101Z,10.20
2017-11-06T14:25:28.787Z,10.10
2017-11-06T14:27:58.065Z,10.00
2017-11-06T14:30:27.449Z,9.90
2017-11-06T14:32:56.719Z,9.90
2017-11-06T14:35:26.002Z,10.00
2017-11-06T14:37:56.038Z,10.10
2017-11-06T14:40:25.282Z,10.10
2017-11-06T14:42:55.320Z,10.00
2017-11-06T14:45:24.634Z,9.90
2017-11-06T14:47:53.908Z,9.80
2017-11-06T14:50:23.260Z,9.80
2017-11-06T14:52:52.615Z,9.70
2017-11-06T14:55:21.898Z,9.60
2017-11-06T14:57:51.142Z,9.60
2017-11-06T15:00:20.559Z,9.40
2017-11-06T15:02:49.803Z,9.40
2017-11-06T15:05:19.080Z,9.20
2017-11-06T15:07:48.314Z,9.20
2017-11-06T15:10:17.677Z,9.20
2017-11-06T15:12:46.877Z,9.10
2017-11-06T15:15:16.210Z,9.10
2017-11-06T15:17:45.430Z,8.90
2017-11-06T15:20:14.685Z,8.70
2017-11-06T15:22:43.934Z,8.70
2017-11-06T15:25:13.178Z,8.70
2017-11-06T15:27:43.071Z,8.60
2017-11-06T15:30:12.449Z,8.60
2017-11-06T15:32:42.477Z,8.50
2017-11-06T15:35:11.747Z,8.40
2017-11-06T15:37:41.777Z,8.50
2017-11-06T15:40:11.171Z,8.40
2017-11-06T15:42:41.193Z,8.40
2017-11-06T15:45:10.503Z,8.40
2017-11-06T15:47:40.628Z,8.50
2017-11-06T15:50:09.876Z,8.50
2017-11-06T15:52:39.117Z,8.40
2017-11-06T15:55:08.399Z,8.40
2017-11-06T15:57:38.032Z,8.30
2017-11-06T16:00:08.057Z,8.10
2017-11-06T16:02:37.325Z,8.10
2017-11-06T16:05:06.593Z,8.10
2017-11-06T16:07:35.865Z,8.10
2017-11-06T16:10:05.152Z,8.20
2017-11-06T16:12:35.161Z,8.40
2017-11-06T16:15:04.535Z,8.30
2017-11-06T16:17:33.888Z,8.30
2017-11-06T16:20:03.174Z,8.30
2017-11-06T16:22:32.598Z,8.10
2017-11-06T16:25:01.846Z,8.00
2017-11-06T16:27:31.282Z,7.90
2017-11-06T16:30:01.295Z,7.70
2017-11-06T16:32:30.575Z,7.70
2017-11-06T16:35:00.024Z,7.70
2017-11-06T16:37:29.324Z,7.70
2017-11-06T16:39:59.339Z,7.60
2017-11-06T16:42:28.590Z,7.60
2017-11-06T16:44:57.855Z,7.60
2017-11-06T16:47:27.112Z,7.70
2017-11-06T16:49:56.375Z,7.70
2017-11-06T16:52:25.657Z,7.60
2017-11-06T16:54:54.902Z,7.50
2017-11-06T16:57:24.166Z,7.50
2017-11-06T16:59:53.570Z,7.50
2017-11-06T17:02:23.118Z,7.40
2017-11-06T17:04:52.366Z,7.30
2017-11-06T17:07:21.750Z,7.20
2017-11-06T17:09:51.858Z,6.90
2017-11-06T17:12:21.128Z,6.90
2017-11-06T17:14:51.164Z,6.70
2017-11-06T17:17:21.185Z,6.60
2017-11-06T17:19:50.425Z,6.60
2017-11-06T17:22:19.776Z,6.60
2017-11-06T17:24:49.023Z,6.60
2017-11-06T17:27:18.447Z,6.60
2017-11-06T17:29:47.682Z,6.60
2017-11-06T17:32:17.230Z,6.60
2017-11-06T17:34:47.244Z,6.70
2017-11-06T17:37:16.490Z,6.70
2017-11-06T17:39:45.730Z,6.80
2017-11-06T17:42:15.014Z,6.90
2017-11-06T17:44:44.261Z,6.90
2017-11-06T17:47:13.538Z,6.90
2017-11-06T17:49:42.993Z,7.00
2017-11-06T17:52:13.001Z,7.20
2017-11-06T17:54:42.251Z,7.20
2017-11-06T17:57:11.702Z,7.20
2017-11-06T17:59:41.296Z,7.10
2017-11-06T18:02:10.569Z,7.00
2017-11-06T18:04:39.813Z,6.90
2017-11-06T18:07:09.115Z,6.80
2017-11-06T18:09:38.382Z,6.60
2017-11-06T18:12:07.731Z,6.50
2017-11-06T18:14:37.775Z,6.40
2017-11-06T18:17:07.026Z,6.30
2017-11-06T18:19:36.451Z,6.30
2017-11-06T18:22:06.466Z,6.00
2017-11-06T18:24:35.765Z,6.00
2017-11-06T18:27:05.014Z,5.90
2017-11-06T18:29:34.987Z,5.80
2017-11-06T18:32:04.248Z,5.80
2017-11-06T18:34:33.490Z,5.60
2017-11-06T18:37:03.610Z,5.50
2017-11-06T18:39:33.646Z,5.40
2017-11-06T18:42:02.879Z,5.40
2017-11-06T18:44:32.148Z,5.40
2017-11-06T18:47:01.449Z,5.30
2017-11-06T18:49:30.699Z,5.10
2017-11-06T18:51:59.950Z,5.00
2017-11-06T18:54:29.306Z,5.00
2017-11-06T18:56:58.577Z,5.10
2017-11-06T18:59:28.050Z,5.10
2017-11-06T19:01:57.302Z,5.20
2017-11-06T19:04:26.567Z,5.30
2017-11-06T19:06:55.849Z,5.30
2017-11-06T19:09:25.367Z,5.40
2017-11-06T19:11:54.665Z,5.50
2017-11-06T19:14:24.057Z,5.60
2017-11-06T19:16:53.298Z,5.70
2017-11-06T19:19:22.629Z,5.80
2017-11-06T19:21:51.876Z,5.70
2017-11-06T19:24:21.293Z,5.70
2017-11-06T19:26:51.416Z,5.70
2017-11-06T19:29:21.430Z,5.60
2017-11-06T19:31:50.687Z,5.60
2017-11-06T19:34:19.937Z,5.70
2017-11-06T19:36:49.971Z,5.80
2017-11-06T19:39:19.243Z,5.80
2017-11-06T19:41:48.646Z,5.80
2017-11-06T19:44:18.667Z,5.90
2017-11-06T19:46:47.906Z,5.90
2017-11-06T19:49:17.372Z,5.90
2017-11-06T19:51:47.378Z,5.90
2017-11-06T19:54:16.642Z,5.90
2017-11-06T19:56:45.999Z,5.90
2017-11-06T19:59:15.211Z,5.90
2017-11-06T20:01:44.482Z,5.90
2017-11-06T20:04:14.507Z,5.80
2017-11-06T20:06:43.903Z,5.80
2017-11-06T20:09:14.233Z,5.80
2017-11-06T20:11:44.350Z,5.90
2017-11-06T20:14:14.416Z,5.90
2017-11-06T20:16:43.664Z,5.90
2017-11-06T20:19:13.014Z,5.80
2017-11-06T20:21:42.262Z,5.80
2017-11-06T20:24:11.707Z,5.80
2017-11-06T20:26:40.953Z,5.80
2017-11-06T20:29:10.221Z,5.70
2017-11-06T20:31:39.664Z,5.70
2017-11-06T20:34:10.436Z,5.50
2017-11-06T20:36:39.709Z,5.60
2017-11-06T20:39:10.577Z,5.60
2017-11-06T20:41:40.489Z,5.60
2017-11-06T20:44:10.485Z,5.30
2017-11-06T20:46:40.546Z,5.20
2017-11-06T20:49:09.770Z,5.20
2017-11-06T20:51:39.066Z,5.10
2017-11-06T20:54:08.516Z,5.00
2017-11-06T20:56:37.772Z,4.90
2017-11-06T20:59:07.044Z,4.80
2017-11-06T21:01:36.291Z,4.80
2017-11-06T21:04:05.572Z,4.70
2017-11-06T21:06:34.939Z,4.60
2017-11-06T21:09:05.272Z,4.50
2017-11-06T21:11:34.801Z,4.50
2017-11-06T21:14:04.072Z,4.50
2017-11-06T21:16:34.210Z,4.40
2017-11-06T21:19:03.695Z,4.40
2017-11-06T21:21:33.728Z,4.30
2017-11-06T21:24:03.099Z,4.20
2017-11-06T21:26:32.380Z,4.20
2017-11-06T21:29:01.645Z,4.10
2017-11-06T21:31:30.891Z,4.10
2017-11-06T21:34:00.207Z,4.00
2017-11-06T21:36:29.459Z,3.90
2017-11-06T21:38:58.725Z,3.70
2017-11-06T21:41:28.191Z,3.70
2017-11-06T21:43:58.053Z,3.80
2017-11-06T21:46:28.035Z,3.70
2017-11-06T21:48:57.317Z,3.60
2017-11-06T21:51:26.575Z,3.60
2017-11-06T21:53:56.695Z,3.50
2017-11-06T21:56:25.929Z,3.50
2017-11-06T21:58:55.340Z,3.50
2017-11-06T22:01:25.417Z,3.50
2017-11-06T22:03:54.742Z,3.40
2017-11-06T22:06:24.204Z,3.40
2017-11-06T22:08:53.458Z,3.40
2017-11-06T22:11:22.718Z,3.40
2017-11-06T22:13:51.974Z,3.40
2017-11-06T22:16:21.673Z,3.30
2017-11-06T22:18:52.194Z,3.30
2017-11-06T22:21:22.263Z,3.30
2017-11-06T22:23:51.622Z,3.20
2017-11-06T22:26:21.717Z,3.20
2017-11-06T22:28:50.953Z,3.20
2017-11-06T22:31:20.381Z,3.20
2017-11-06T22:33:49.677Z,3.10
2017-11-06T22:36:18.946Z,3.10
2017-11-06T22:38:48.965Z,3.20
2017-11-06T22:41:18.216Z,3.10
2017-11-06T22:43:47.485Z,3.10
2017-11-06T22:46:16.746Z,3.10
2017-11-06T22:48:46.162Z,3.10
2017-11-06T22:51:16.141Z,3.10
2017-11-06T22:53:45.681Z,3.10
2017-11-06T22:56:15.693Z,3.10
2017-11-06T22:58:44.990Z,3.10
2017-11-06T23:01:14.223Z,3.10
2017-11-06T23:03:44.023Z,3.00
2017-11-06T23:06:13.274Z,3.00
2017-11-06T23:08:42.617Z,3.00
2017-11-06T23:11:11.927Z,3.00
2017-11-06T23:13:41.197Z,3.00
2017-11-06T23:16:10.631Z,3.00
2017-11-06T23:18:40.634Z,3.20
2017-11-06T23:21:09.896Z,3.10
2017-11-06T23:23:39.147Z,3.20
2017-11-06T23:26:08.417Z,3.20
2017-11-06T23:28:37.685Z,3.20
2017-11-06T23:31:07.797Z,3.20
2017-11-06T23:33:37.069Z,3.20
2017-11-06T23:36:06.326Z,3.30
2017-11-06T23:38:35.602Z,3.30
2017-11-06T23:41:05.582Z,3.40
2017-11-06T23:43:34.838Z,3.40
2017-11-06T23:46:04.070Z,3.50
2017-11-06T23:48:33.378Z,3.40
2017-11-06T23:51:02.602Z,3.50
2017-11-06T23:53:32.616Z,3.40
2017-11-06T23:56:02.003Z,3.40
2017-11-06T23:58:32.020Z,3.40
